createdAt,value
2019-05-29T00:01:40.267Z,5.13
2019-05-29T00:04:08.799Z,1.67
2019-05-29T00:06:38.701Z,6.17
2019-05-29T00:09:08.092Z,11.63
2019-05-29T00:11:36.640Z,7.87
2019-05-29T00:14:18.752Z,4.00
2019-05-29T00:16:35.358Z,6.73
2019-05-29T00:19:03.844Z,6.50
2019-05-29T00:21:32.292Z,2.93
2019-05-29T00:24:00.826Z,4.73
2019-05-29T00:26:29.286Z,2.47
2019-05-29T00:28:57.773Z,2.87
2019-05-29T00:31:26.345Z,11.43
2019-05-29T00:33:54.845Z,4.10
2019-05-29T00:36:23.719Z,6.70
2019-05-29T00:38:52.209Z,8.87
2019-05-29T00:41:20.673Z,10.83
2019-05-29T00:43:49.176Z,16.03
2019-05-29T00:46:17.684Z,8.20
2019-05-29T00:48:46.159Z,5.10
2019-05-29T00:51:15.105Z,9.27
2019-05-29T00:53:43.830Z,10.57
2019-05-29T00:56:12.686Z,6.43
2019-05-29T00:58:41.585Z,13.83
2019-05-29T01:01:11.365Z,24.77
2019-05-29T01:03:39.851Z,19.27
2019-05-29T01:06:09.822Z,6.90
2019-05-29T01:08:38.414Z,14.87
2019-05-29T01:11:06.895Z,8.33
2019-05-29T01:13:35.628Z,11.33
2019-05-29T01:16:04.103Z,8.57
2019-05-29T01:18:32.586Z,7.77
2019-05-29T01:21:01.083Z,5.73
2019-05-29T01:23:29.538Z,6.00
2019-05-29T01:25:58.008Z,7.50
2019-05-29T01:28:26.461Z,4.90
2019-05-29T01:30:55.286Z,5.60
2019-05-29T01:33:25.013Z,2.47
2019-05-29T01:35:53.623Z,5.13
2019-05-29T01:38:23.391Z,4.90
2019-05-29T01:40:51.939Z,3.37
2019-05-29T01:43:21.426Z,5.13
2019-05-29T01:45:50.086Z,3.43
2019-05-29T01:48:19.583Z,3.73
2019-05-29T01:50:48.097Z,3.30
2019-05-29T01:53:17.655Z,2.53
2019-05-29T01:55:46.448Z,4.07
2019-05-29T01:58:15.653Z,3.13
2019-05-29T02:00:44.180Z,1.53
2019-05-29T02:03:12.652Z,5.37
2019-05-29T02:05:41.128Z,3.60
2019-05-29T02:08:09.872Z,4.17
2019-05-29T02:10:38.345Z,7.47
2019-05-29T02:13:07.134Z,4.60
2019-05-29T02:15:35.834Z,3.50
2019-05-29T02:18:04.361Z,4.20
2019-05-29T02:20:32.869Z,5.33
2019-05-29T02:23:01.305Z,4.10
2019-05-29T02:25:29.792Z,2.07
2019-05-29T02:27:58.254Z,3.57
2019-05-29T02:30:30.348Z,5.40
2019-05-29T02:32:57.255Z,3.80
2019-05-29T02:35:28.746Z,2.53
2019-05-29T02:37:55.944Z,4.03
2019-05-29T02:40:26.354Z,1.93
2019-05-29T02:42:54.635Z,6.57
2019-05-29T02:45:26.172Z,2.47
2019-05-29T02:47:53.288Z,4.27
2019-05-29T02:50:22.313Z,3.47
2019-05-29T02:52:52.095Z,3.43
2019-05-29T02:55:20.819Z,1.63
2019-05-29T02:57:50.715Z,4.70
2019-05-29T03:00:19.195Z,2.90
2019-05-29T03:02:47.632Z,1.67
2019-05-29T03:05:16.130Z,4.10
2019-05-29T03:07:44.606Z,4.50
2019-05-29T03:10:14.147Z,3.40
2019-05-29T03:12:42.591Z,5.37
2019-05-29T03:15:11.359Z,5.10
2019-05-29T03:17:39.831Z,5.83
2019-05-29T03:20:08.326Z,3.53
2019-05-29T03:22:36.793Z,3.57
2019-05-29T03:25:05.489Z,5.43
2019-05-29T03:27:34.287Z,2.63
2019-05-29T03:30:02.740Z,2.90
2019-05-29T03:32:37.742Z,2.47
2019-05-29T03:35:01.724Z,2.30
2019-05-29T03:37:30.505Z,2.57
2019-05-29T03:39:59.440Z,1.93
2019-05-29T03:42:28.344Z,3.27
2019-05-29T03:44:57.130Z,4.00
2019-05-29T03:47:26.942Z,4.57
2019-05-29T03:49:55.922Z,6.33
2019-05-29T03:52:26.148Z,1.43
2019-05-29T03:54:54.588Z,2.87
2019-05-29T03:57:23.074Z,3.63
2019-05-29T03:59:51.545Z,3.03
2019-05-29T04:02:20.031Z,1.70
2019-05-29T04:04:48.776Z,3.23
2019-05-29T04:07:17.221Z,5.80
2019-05-29T04:09:45.709Z,1.40
2019-05-29T04:12:18.802Z,11.80
2019-05-29T04:14:44.399Z,3.43
2019-05-29T04:17:13.519Z,3.23
2019-05-29T04:19:42.397Z,3.40
2019-05-29T04:22:10.948Z,5.37
2019-05-29T04:24:40.052Z,2.20
2019-05-29T04:27:09.595Z,4.07
2019-05-29T04:29:38.475Z,4.20
2019-05-29T04:32:06.923Z,3.30
2019-05-29T04:34:36.297Z,3.33
2019-05-29T04:37:07.405Z,5.47
2019-05-29T04:39:36.929Z,1.70
2019-05-29T04:42:05.480Z,5.37
2019-05-29T04:44:36.304Z,5.23
2019-05-29T04:47:10.940Z,6.70
2019-05-29T04:49:36.196Z,2.57
2019-05-29T04:52:04.628Z,7.47
2019-05-29T04:54:33.439Z,5.40
2019-05-29T04:57:01.971Z,2.50
2019-05-29T04:59:30.882Z,1.57
2019-05-29T05:02:00.057Z,7.43
2019-05-29T05:04:29.105Z,4.10
2019-05-29T05:06:57.756Z,3.97
2019-05-29T05:09:26.183Z,4.27
2019-05-29T05:11:54.692Z,3.73
2019-05-29T05:14:23.179Z,3.73
2019-05-29T05:16:51.672Z,6.07
2019-05-29T05:19:20.169Z,11.40
2019-05-29T05:21:48.647Z,6.13
2019-05-29T05:24:17.138Z,1.00
2019-05-29T05:26:45.616Z,3.03
2019-05-29T05:29:14.180Z,3.43
2019-05-29T05:31:42.636Z,7.50
2019-05-29T05:34:11.629Z,1.37
2019-05-29T05:36:40.994Z,2.00
2019-05-29T05:39:09.587Z,2.33
2019-05-29T05:41:38.987Z,1.73
2019-05-29T05:44:07.795Z,3.67
2019-05-29T05:46:37.144Z,1.97
2019-05-29T05:49:06.054Z,4.20
2019-05-29T05:51:38.163Z,2.57
2019-05-29T05:54:04.711Z,2.87
2019-05-29T05:56:33.698Z,4.13
2019-05-29T05:59:02.141Z,4.10
2019-05-29T06:01:31.754Z,5.43
2019-05-29T06:04:00.393Z,3.03
2019-05-29T06:06:28.867Z,2.10
2019-05-29T06:08:57.379Z,2.20
2019-05-29T06:11:25.847Z,2.03
2019-05-29T06:13:54.345Z,1.73
2019-05-29T06:16:22.889Z,3.17
2019-05-29T06:18:52.646Z,2.93
2019-05-29T06:21:21.078Z,1.73
2019-05-29T06:23:49.559Z,8.13
2019-05-29T06:26:18.065Z,3.43
2019-05-29T06:28:46.522Z,1.20
2019-05-29T06:31:14.994Z,1.27
2019-05-29T06:33:44.078Z,4.17
2019-05-29T06:36:12.865Z,0.87
2019-05-29T06:38:42.182Z,7.10
2019-05-29T06:41:10.728Z,2.03
2019-05-29T06:43:39.903Z,3.33
2019-05-29T06:46:08.442Z,5.43
2019-05-29T06:48:44.839Z,3.43
2019-05-29T06:51:07.411Z,1.87
2019-05-29T06:53:37.618Z,1.83
2019-05-29T06:56:06.305Z,2.20
2019-05-29T06:58:35.896Z,1.80
2019-05-29T07:01:04.450Z,2.87
2019-05-29T07:03:32.923Z,1.17
2019-05-29T07:06:01.518Z,1.70
2019-05-29T07:08:38.914Z,1.30
2019-05-29T07:11:00.225Z,4.00
2019-05-29T07:13:28.701Z,1.23
2019-05-29T07:15:57.199Z,4.17
2019-05-29T07:18:25.696Z,1.93
2019-05-29T07:20:54.166Z,3.30
2019-05-29T07:23:22.654Z,1.03
2019-05-29T07:25:51.465Z,2.03
2019-05-29T07:28:19.939Z,4.40
2019-05-29T07:30:59.421Z,5.17
2019-05-29T07:33:19.290Z,3.97
2019-05-29T07:35:47.849Z,2.30
2019-05-29T07:38:16.387Z,2.40
2019-05-29T07:40:47.569Z,1.70
2019-05-29T07:43:15.166Z,5.73
2019-05-29T07:45:44.067Z,3.73
2019-05-29T07:48:12.577Z,4.03
2019-05-29T07:50:42.126Z,1.17
2019-05-29T07:53:10.655Z,2.77
2019-05-29T07:55:40.385Z,4.97
2019-05-29T07:58:08.913Z,2.90
2019-05-29T08:00:59.798Z,3.03
2019-05-29T08:03:07.844Z,2.50
2019-05-29T08:05:36.318Z,2.63
2019-05-29T08:08:04.819Z,3.93
2019-05-29T08:10:33.317Z,1.03
2019-05-29T08:13:01.796Z,5.23
2019-05-29T08:15:30.325Z,1.37
2019-05-29T08:17:58.801Z,2.93
2019-05-29T08:20:27.787Z,1.87
2019-05-29T08:22:56.276Z,3.83
2019-05-29T08:25:24.763Z,1.73
2019-05-29T08:27:53.241Z,2.30
2019-05-29T08:30:21.736Z,2.03
2019-05-29T08:32:51.265Z,4.53
2019-05-29T08:35:19.789Z,1.70
2019-05-29T08:37:49.135Z,4.93
2019-05-29T08:40:17.711Z,2.37
2019-05-29T08:42:47.315Z,0.90
2019-05-29T08:45:15.952Z,3.37
2019-05-29T08:47:45.503Z,2.20
2019-05-29T08:50:18.730Z,2.10
2019-05-29T08:52:45.868Z,1.50
2019-05-29T08:55:14.517Z,2.83
2019-05-29T08:57:44.242Z,0.97
2019-05-29T09:00:12.881Z,2.40
2019-05-29T09:02:42.585Z,4.53
2019-05-29T09:05:11.603Z,4.37
2019-05-29T09:07:40.336Z,3.43
2019-05-29T09:10:08.816Z,3.27
2019-05-29T09:12:37.400Z,4.20
2019-05-29T09:15:06.317Z,3.10
2019-05-29T09:17:34.771Z,2.43
2019-05-29T09:20:03.285Z,1.10
2019-05-29T09:22:31.748Z,2.07
2019-05-29T09:25:00.459Z,1.70
2019-05-29T09:27:28.956Z,1.27
2019-05-29T09:29:57.731Z,3.67
2019-05-29T09:32:48.748Z,2.40
2019-05-29T09:34:56.390Z,4.53
2019-05-29T09:37:25.139Z,6.43
2019-05-29T09:39:53.653Z,1.90
2019-05-29T09:42:23.595Z,2.27
2019-05-29T09:44:52.289Z,1.13
2019-05-29T09:47:22.166Z,2.30
2019-05-29T09:49:50.861Z,3.23
2019-05-29T09:52:19.319Z,1.77
2019-05-29T09:54:47.810Z,1.20
2019-05-29T09:57:16.264Z,0.70
2019-05-29T09:59:44.752Z,1.17
2019-05-29T10:02:13.239Z,2.50
2019-05-29T10:04:41.697Z,1.00
2019-05-29T10:07:10.224Z,3.73
2019-05-29T10:09:38.707Z,1.97
2019-05-29T10:12:07.211Z,1.27
2019-05-29T10:14:35.684Z,3.27
2019-05-29T10:17:11.003Z,2.20
2019-05-29T10:19:34.396Z,4.13
2019-05-29T10:22:04.014Z,3.03
2019-05-29T10:24:33.061Z,2.60
2019-05-29T10:27:03.114Z,1.67
2019-05-29T10:29:32.039Z,1.10
2019-05-29T10:32:00.512Z,2.10
2019-05-29T10:34:29.027Z,2.73
2019-05-29T10:36:57.752Z,2.57
2019-05-29T10:39:26.490Z,2.53
2019-05-29T10:41:55.198Z,4.73
2019-05-29T10:44:23.688Z,3.80
2019-05-29T10:46:54.312Z,2.20
2019-05-29T10:49:22.390Z,2.43
2019-05-29T10:52:05.775Z,1.73
2019-05-29T10:54:21.073Z,2.60
2019-05-29T10:56:50.822Z,1.10
2019-05-29T10:59:19.447Z,2.37
2019-05-29T11:01:49.180Z,1.50
2019-05-29T11:04:18.064Z,1.63
2019-05-29T11:06:47.893Z,0.80
2019-05-29T11:09:16.569Z,1.43
2019-05-29T11:11:46.224Z,2.13
2019-05-29T11:14:14.844Z,4.43
2019-05-29T11:16:43.724Z,5.40
2019-05-29T11:19:12.200Z,1.27
2019-05-29T11:21:41.017Z,2.43
2019-05-29T11:24:09.432Z,1.23
2019-05-29T11:26:37.921Z,1.23
2019-05-29T11:29:06.497Z,1.97
2019-05-29T11:31:34.976Z,2.63
2019-05-29T11:34:03.468Z,1.00
2019-05-29T11:36:32.173Z,2.10
2019-05-29T11:39:05.417Z,3.37
2019-05-29T11:41:30.906Z,1.30
2019-05-29T11:43:59.413Z,2.70
2019-05-29T11:46:27.901Z,3.47
2019-05-29T11:48:57.346Z,2.10
2019-05-29T11:51:25.856Z,1.40
2019-05-29T11:53:55.438Z,2.17
2019-05-29T11:56:24.029Z,2.33
2019-05-29T11:58:52.765Z,2.30
2019-05-29T12:01:21.381Z,1.90
2019-05-29T12:04:13.170Z,2.03
2019-05-29T12:06:20.160Z,1.10
2019-05-29T12:08:48.604Z,2.50
2019-05-29T12:11:17.395Z,2.27
2019-05-29T12:13:45.975Z,2.53
2019-05-29T12:16:14.469Z,3.27
2019-05-29T12:18:43.221Z,1.80
2019-05-29T12:21:11.683Z,1.77
2019-05-29T12:23:40.192Z,2.97
2019-05-29T12:26:21.740Z,1.43
2019-05-29T12:28:39.342Z,2.87
2019-05-29T12:31:07.791Z,1.33
2019-05-29T12:33:36.279Z,1.93
2019-05-29T12:36:05.019Z,2.00
2019-05-29T12:38:33.494Z,2.70
2019-05-29T12:41:01.982Z,2.40
2019-05-29T12:43:30.447Z,2.03
2019-05-29T12:46:00.140Z,1.83
2019-05-29T12:48:28.702Z,2.40
2019-05-29T12:50:58.222Z,3.70
2019-05-29T12:53:30.957Z,2.40
2019-05-29T12:55:58.314Z,3.33
2019-05-29T12:58:26.992Z,5.60
2019-05-29T13:00:56.402Z,3.00
2019-05-29T13:03:25.031Z,1.00
2019-05-29T13:05:54.168Z,2.00
2019-05-29T13:08:22.719Z,2.43
2019-05-29T13:10:51.186Z,3.30
2019-05-29T13:13:20.179Z,0.80
2019-05-29T13:15:48.741Z,1.10
2019-05-29T13:18:17.462Z,0.73
2019-05-29T13:20:46.003Z,1.77
2019-05-29T13:23:14.460Z,0.70
2019-05-29T13:25:42.943Z,1.00
2019-05-29T13:28:11.455Z,1.20
2019-05-29T13:30:39.991Z,0.80
2019-05-29T13:33:09.112Z,0.60
2019-05-29T13:35:37.746Z,1.23
2019-05-29T13:38:07.346Z,3.00
2019-05-29T13:40:35.906Z,0.50
2019-05-29T13:43:11.433Z,3.20
2019-05-29T13:45:34.595Z,2.23
2019-05-29T13:48:03.298Z,1.67
2019-05-29T13:50:31.828Z,0.70
2019-05-29T13:53:01.307Z,1.83
2019-05-29T13:55:30.080Z,0.90
2019-05-29T13:57:59.534Z,0.60
2019-05-29T14:00:33.953Z,0.77
2019-05-29T14:02:58.508Z,1.73
2019-05-29T14:05:27.460Z,1.27
2019-05-29T14:07:55.937Z,1.13
2019-05-29T14:10:24.456Z,0.67
2019-05-29T14:12:52.906Z,0.70
2019-05-29T14:15:21.688Z,2.90
2019-05-29T14:17:50.207Z,0.53
2019-05-29T14:20:18.687Z,1.00
2019-05-29T14:22:47.184Z,2.47
2019-05-29T14:25:15.769Z,1.20
2019-05-29T14:27:44.279Z,1.23
2019-05-29T14:30:14.097Z,2.03
2019-05-29T14:32:42.734Z,1.03
2019-05-29T14:35:13.128Z,0.60
2019-05-29T14:37:41.433Z,1.80
2019-05-29T14:40:09.979Z,2.57
2019-05-29T14:42:38.767Z,2.00
2019-05-29T14:45:08.392Z,1.27
2019-05-29T14:47:36.868Z,3.43
2019-05-29T14:50:06.444Z,1.87
2019-05-29T14:52:35.028Z,1.67
2019-05-29T14:55:04.546Z,0.70
2019-05-29T14:57:33.076Z,0.77
2019-05-29T15:00:06.745Z,1.73
2019-05-29T15:02:32.166Z,1.03
2019-05-29T15:05:00.667Z,2.40
2019-05-29T15:07:29.119Z,0.80
2019-05-29T15:09:57.615Z,1.20
2019-05-29T15:12:26.107Z,1.17
2019-05-29T15:14:54.571Z,2.53
2019-05-29T15:17:23.054Z,1.90
2019-05-29T15:19:51.534Z,1.07
2019-05-29T15:22:19.984Z,1.47
2019-05-29T15:25:01.534Z,2.87
2019-05-29T15:27:18.691Z,2.90
2019-05-29T15:29:47.134Z,1.57
2019-05-29T15:32:16.688Z,1.30
2019-05-29T15:34:45.478Z,1.93
2019-05-29T15:37:16.982Z,3.13
2019-05-29T15:39:44.137Z,1.33
2019-05-29T15:42:12.897Z,1.10
2019-05-29T15:44:41.466Z,2.07
2019-05-29T15:47:10.902Z,3.63
2019-05-29T15:49:39.406Z,1.40
2019-05-29T15:52:08.991Z,1.27
2019-05-29T15:54:37.448Z,1.20
2019-05-29T15:57:06.913Z,1.80
2019-05-29T15:59:36.147Z,1.00
2019-05-29T16:02:04.635Z,2.10
2019-05-29T16:04:33.131Z,1.47
2019-05-29T16:07:01.635Z,1.87
2019-05-29T16:09:30.103Z,0.87
2019-05-29T16:11:58.575Z,1.40
2019-05-29T16:14:27.048Z,2.70
2019-05-29T16:16:55.527Z,3.33
2019-05-29T16:19:24.020Z,0.77
2019-05-29T16:21:52.765Z,2.27
2019-05-29T16:24:23.030Z,1.60
2019-05-29T16:26:51.593Z,1.20
2019-05-29T16:29:20.061Z,2.30
2019-05-29T16:31:48.565Z,0.80
2019-05-29T16:34:18.937Z,2.27
2019-05-29T16:36:47.298Z,1.33
2019-05-29T16:39:15.903Z,1.03
2019-05-29T16:41:44.310Z,1.43
2019-05-29T16:44:13.974Z,1.20
2019-05-29T16:46:42.705Z,0.77
2019-05-29T16:49:12.444Z,1.00
2019-05-29T16:51:42.067Z,1.80
2019-05-29T16:54:11.196Z,0.80
2019-05-29T16:56:39.986Z,1.70
2019-05-29T16:59:08.498Z,0.70
2019-05-29T17:01:36.989Z,1.17
2019-05-29T17:04:05.485Z,1.07
2019-05-29T17:06:33.973Z,0.83
2019-05-29T17:09:02.480Z,1.87
2019-05-29T17:11:30.938Z,1.57
2019-05-29T17:13:59.456Z,1.57
2019-05-29T17:16:27.984Z,1.20
2019-05-29T17:18:56.477Z,0.93
2019-05-29T17:21:25.049Z,1.27
2019-05-29T17:23:53.497Z,1.70
2019-05-29T17:26:22.765Z,0.87
2019-05-29T17:28:51.280Z,1.50
2019-05-29T17:31:20.823Z,1.00
2019-05-29T17:33:49.370Z,0.90
2019-05-29T17:36:18.936Z,0.80
2019-05-29T17:38:47.491Z,0.60
2019-05-29T17:41:17.187Z,1.30
2019-05-29T17:43:46.036Z,0.93
2019-05-29T17:46:15.370Z,0.90
2019-05-29T17:48:43.808Z,1.33
2019-05-29T17:51:12.304Z,1.70
2019-05-29T17:53:40.789Z,0.83
2019-05-29T17:56:09.263Z,3.00
2019-05-29T17:58:37.768Z,1.57
2019-05-29T18:01:06.268Z,1.63
2019-05-29T18:03:34.740Z,1.73
2019-05-29T18:06:03.325Z,0.83
2019-05-29T18:08:31.811Z,0.70
2019-05-29T18:11:00.593Z,2.03
2019-05-29T18:13:29.214Z,2.03
2019-05-29T18:15:57.714Z,0.50
2019-05-29T18:18:26.189Z,2.17
2019-05-29T18:20:54.676Z,0.70
2019-05-29T18:23:24.229Z,0.83
2019-05-29T18:25:52.850Z,0.40
2019-05-29T18:28:22.046Z,1.20
2019-05-29T18:30:50.594Z,2.10
2019-05-29T18:33:19.074Z,0.67
2019-05-29T18:35:47.552Z,2.30
2019-05-29T18:38:16.046Z,0.63
2019-05-29T18:40:44.563Z,2.00
2019-05-29T18:43:13.044Z,1.53
2019-05-29T18:45:41.592Z,1.33
2019-05-29T18:48:10.083Z,1.10
2019-05-29T18:50:38.566Z,1.40
2019-05-29T18:53:07.328Z,1.03
2019-05-29T18:55:35.787Z,2.40
2019-05-29T18:58:04.299Z,0.40
2019-05-29T19:00:32.773Z,1.40
2019-05-29T19:03:01.247Z,0.50
2019-05-29T19:05:29.807Z,3.67
2019-05-29T19:07:58.277Z,1.40
2019-05-29T19:10:27.740Z,1.43
2019-05-29T19:12:56.226Z,0.80
2019-05-29T19:15:25.900Z,0.83
2019-05-29T19:17:54.476Z,0.87
2019-05-29T19:20:24.108Z,1.00
2019-05-29T19:22:52.722Z,4.77
2019-05-29T19:25:22.548Z,1.30
2019-05-29T19:27:51.332Z,0.97
2019-05-29T19:30:20.035Z,1.23
2019-05-29T19:32:48.544Z,0.83
2019-05-29T19:35:17.032Z,1.10
2019-05-29T19:37:45.820Z,1.43
2019-05-29T19:40:14.589Z,1.43
2019-05-29T19:42:43.071Z,3.10
2019-05-29T19:45:11.663Z,1.23
2019-05-29T19:47:40.154Z,1.93
2019-05-29T19:50:11.330Z,1.40
2019-05-29T19:52:39.659Z,2.73
2019-05-29T19:55:08.133Z,1.50
2019-05-29T19:57:53.940Z,5.37
2019-05-29T20:00:07.162Z,4.23
2019-05-29T20:02:36.743Z,2.57
2019-05-29T20:05:06.122Z,3.27
2019-05-29T20:07:35.285Z,3.53
2019-05-29T20:10:04.032Z,3.67
2019-05-29T20:12:33.750Z,2.77
2019-05-29T20:15:02.255Z,3.30
2019-05-29T20:17:31.983Z,2.77
2019-05-29T20:20:00.601Z,2.80
2019-05-29T20:22:29.087Z,3.80
2019-05-29T20:24:57.893Z,2.27
2019-05-29T20:27:26.728Z,4.47
2019-05-29T20:29:55.213Z,3.87
2019-05-29T20:32:23.747Z,3.20
2019-05-29T20:34:52.206Z,3.57
2019-05-29T20:37:24.892Z,7.73
2019-05-29T20:39:53.361Z,8.13
2019-05-29T20:42:22.103Z,8.27
2019-05-29T20:44:50.586Z,5.60
2019-05-29T20:47:19.077Z,7.73
2019-05-29T20:49:47.777Z,10.67
2019-05-29T20:52:16.241Z,8.90
2019-05-29T20:54:44.729Z,6.97
2019-05-29T20:57:13.206Z,6.03
2019-05-29T20:59:42.263Z,6.77
2019-05-29T21:02:10.942Z,11.43
2019-05-29T21:04:40.613Z,10.63
2019-05-29T21:07:09.293Z,9.90
2019-05-29T21:09:39.108Z,7.40
2019-05-29T21:12:07.611Z,8.73
2019-05-29T21:14:36.117Z,6.80
2019-05-29T21:17:04.587Z,5.43
2019-05-29T21:19:34.025Z,7.37
2019-05-29T21:22:02.556Z,5.93
2019-05-29T21:24:31.027Z,5.87
2019-05-29T21:26:59.500Z,4.40
2019-05-29T21:29:27.986Z,3.87
2019-05-29T21:31:56.474Z,5.37
2019-05-29T21:34:24.959Z,4.00
2019-05-29T21:36:53.469Z,3.90
2019-05-29T21:39:22.021Z,2.87
2019-05-29T21:41:50.810Z,6.40
2019-05-29T21:44:19.639Z,5.67
2019-05-29T21:46:48.343Z,3.00
2019-05-29T21:49:16.832Z,4.60
2019-05-29T21:51:45.756Z,3.70
2019-05-29T21:54:14.487Z,7.60
2019-05-29T21:56:43.749Z,6.50
2019-05-29T21:59:12.237Z,7.77
2019-05-29T22:01:41.962Z,6.73
2019-05-29T22:04:10.557Z,7.83
2019-05-29T22:06:39.036Z,6.33
2019-05-29T22:09:12.969Z,4.93
2019-05-29T22:11:41.492Z,5.37
2019-05-29T22:14:10.249Z,3.40
2019-05-29T22:16:38.714Z,5.07
2019-05-29T22:19:07.480Z,4.23
2019-05-29T22:21:35.984Z,2.50
2019-05-29T22:24:04.476Z,4.63
2019-05-29T22:26:33.156Z,2.07
2019-05-29T22:29:17.342Z,2.10
2019-05-29T22:31:33.000Z,2.67
2019-05-29T22:34:01.978Z,4.83
2019-05-29T22:36:32.790Z,2.10
2019-05-29T22:39:01.791Z,3.30
2019-05-29T22:41:31.979Z,4.73
2019-05-29T22:44:02.494Z,2.20
2019-05-29T22:46:31.732Z,3.97
2019-05-29T22:49:00.202Z,4.00
2019-05-29T22:51:28.673Z,3.40
2019-05-29T22:53:57.900Z,2.13
2019-05-29T22:56:26.428Z,2.10
2019-05-29T22:58:56.016Z,2.60
2019-05-29T23:01:24.547Z,3.13
2019-05-29T23:03:54.144Z,2.63
2019-05-29T23:06:22.642Z,3.20
2019-05-29T23:08:52.149Z,3.93
2019-05-29T23:11:20.908Z,8.37
2019-05-29T23:13:49.650Z,3.70
2019-05-29T23:16:18.144Z,5.23
2019-05-29T23:18:46.628Z,4.60
2019-05-29T23:21:15.143Z,5.77
2019-05-29T23:23:43.643Z,3.70
2019-05-29T23:26:12.440Z,2.83
2019-05-29T23:28:40.995Z,3.97
2019-05-29T23:31:09.475Z,4.10
2019-05-29T23:33:37.974Z,5.20
2019-05-29T23:36:06.465Z,9.10
2019-05-29T23:38:34.956Z,3.60
2019-05-29T23:41:03.747Z,3.50
2019-05-29T23:43:32.318Z,2.30
2019-05-29T23:46:02.406Z,2.10
2019-05-29T23:48:31.196Z,2.70
2019-05-29T23:50:59.662Z,2.90
2019-05-29T23:53:28.158Z,2.23
2019-05-29T23:55:57.689Z,4.37
2019-05-29T23:58:26.261Z,4.87
